Latest Weather Observations for Adele Island

IDW60801

Issued at 7:05 pm WST Wednesday 30 July 2014 (issued every 30 minutes, with the page automatically refreshed every 10 minutes)

About weather observations | Map of weather stations | Latest weather observations for WA | Other Formats
Station Details ID: 200735 Name: ADELE ISLAND Lat: -15.51 Lon: 123.16 Height: 4.6 m
Data from the previous 72 hours. | See also: Recent months for locations in Western Australia
Date/Time
WST
Temp
°C
App
Temp
°C
Dew
Point
Rel
Hum
%
Delta-T
°C
Wind Press
QNH
hPa
Press
MSL
hPa
Rain
since 9 am
mm
Dir
 
Spd
km/h
Gust
km/h
Spd
kts
Gust
kts
30/07:00pm 26.0 - - - - SW 13 15 7 8 1014.8 1014.7 -
30/06:30pm 25.9 - - - - SW 13 15 7 8 1014.7 - -
30/06:00pm 25.9 - - - - SSW 13 15 7 8 1014.5 1014.4 -
30/05:30pm 25.6 - - - - SSW 13 13 7 7 1014.5 - -
30/05:00pm 26.1 - - - - SSW 11 13 6 7 1014.4 1014.3 -
30/04:30pm 26.5 - - - - SSW 9 13 5 7 1014.3 - -
30/04:00pm 26.7 - - - - SSW 11 15 6 8 1014.1 1014.0 -
30/03:30pm 27.1 - - - - SW 13 15 7 8 1013.9 - -
30/03:00pm 27.3 - - - - S 13 17 7 9 1013.8 1013.7 -
30/02:30pm 27.5 - - - - SSE 15 19 8 10 1013.9 - -
30/02:00pm 27.1 - - - - SSE 15 19 8 10 1014.1 1014.0 -
30/01:30pm 27.5 - - - - SE 15 19 8 10 1014.2 - -
30/01:00pm 26.7 - - - - ESE 17 20 9 11 1014.8 1014.7 -
30/12:30pm 27.2 - - - - ESE 19 20 10 11 1015.1 - -
30/12:00pm 27.8 - - - - SE 17 20 9 11 1015.5 1015.4 -
30/11:30am 27.2 - - - - SE 17 20 9 11 1015.5 - -
30/11:00am 27.8 - - - - SE 13 20 7 11 1016.0 1015.9 -
30/10:30am 27.7 - - - - SE 13 19 7 10 1016.2 - -
30/10:00am 27.7 - - - - SE 11 17 6 9 1016.6 1016.5 -
30/09:30am 27.8 - - - - ESE 9 11 5 6 1016.9 - -
30/09:00am 28.1 - - - - SSE 7 11 4 6 1017.2 1017.1 -
30/08:30am 27.6 - - - - ESE 6 11 3 6 1017.3 - -
30/08:00am 26.3 - - - - E 4 7 2 4 1017.1 1017.0 -
30/07:30am 25.1 - - - - WSW 7 9 4 5 1016.9 - -
30/07:00am 25.4 - - - - N 9 9 5 5 1016.4 1016.3 -
30/06:30am 25.3 - - - - WSW 7 9 4 5 1016.2 - -
30/06:00am 25.4 - - - - WSW 9 11 5 6 1016.0 1015.9 -
30/05:30am 25.3 - - - - WSW 7 9 4 5 1015.9 - -
30/05:00am 25.4 - - - - WSW 7 11 4 6 1015.4 1015.3 -
30/04:30am 25.3 - - - - W 6 11 3 6 1015.4 - -
30/04:00am 25.0 - - - - CALM 0 0 0 0 1015.5 1015.4 -
30/03:30am 25.7 - - - - CALM 0 0 0 0 1015.4 - -
30/03:00am 25.2 - - - - CALM 0 0 0 0 1015.4 1015.3 -
30/02:30am 25.2 - - - - CALM 0 0 0 0 1015.4 - -
30/02:00am 25.6 - - - - CALM 0 0 0 0 1015.6 1015.5 -
30/01:30am 25.5 - - - - CALM 0 0 0 0 1015.7 - -
30/01:00am 25.3 - - - - CALM 0 0 0 0 1015.8 1015.7 -
30/12:30am 25.3 - - - - CALM 0 0 0 0 1015.8 - -
30/12:00am 25.6 - - - - NW 0 0 0 0 1016.0 1015.9 -
 
Date/Time
WST
Temp
°C
App
Temp
°C
Dew
Point
Rel
Hum
%
Delta-T
°C
Wind Press
QNH
hPa
Press
MSL
hPa
Rain
since 9 am
mm
Dir
 
Spd
km/h
Gust
km/h
Spd
kts
Gust
kts
29/11:30pm 26.0 - - - - WSW 7 9 4 5 1015.9 - -
29/11:00pm 26.0 - - - - WSW 9 9 5 5 1016.0 1015.9 -
29/10:30pm 25.9 - - - - SW 9 11 5 6 1015.9 - -
29/10:00pm 25.9 - - - - SSW 11 13 6 7 1015.9 1015.8 -
29/09:30pm 26.0 - - - - SSW 13 13 7 7 1015.9 - -
29/09:00pm 25.9 - - - - S 13 13 7 7 1015.8 1015.7 -
29/08:30pm 25.8 - - - - SSW 11 13 6 7 1015.8 - -
29/08:00pm 24.7 - - - - S 13 17 7 9 1015.5 1015.4 -
29/07:30pm 24.6 - - - - S 17 19 9 10 1015.3 - -
29/07:00pm 24.7 - - - - S 17 20 9 11 1015.2 1015.1 -
29/06:30pm 24.8 - - - - S 15 17 8 9 1015.1 - -
29/06:00pm 25.1 - - - - S 15 15 8 8 1014.9 1014.8 -
29/05:30pm 25.6 - - - - SSW 13 15 7 8 1014.7 - -
29/05:00pm 26.2 - - - - S 11 15 6 8 1014.4 1014.3 -
29/04:30pm 27.1 - - - - S 15 19 8 10 1014.1 - -
29/04:00pm 27.3 - - - - S 15 17 8 9 1014.0 1013.9 -
29/03:30pm 27.5 - - - - SSE 15 17 8 9 1013.9 - -
29/03:00pm 27.1 - - - - SSE 15 19 8 10 1013.9 1013.8 -
29/02:30pm 27.3 - - - - SE 15 17 8 9 1014.1 - -
29/02:00pm 27.3 - - - - SE 15 17 8 9 1014.5 1014.4 -
29/01:30pm 27.6 - - - - ESE 15 19 8 10 1014.7 - -
29/01:00pm 27.2 - - - - SE 15 17 8 9 1015.1 1015.0 -
29/12:30pm 27.7 - - - - SE 15 19 8 10 1015.5 - -
29/12:00pm 27.4 - - - - SE 17 20 9 11 1015.8 1015.7 -
29/11:30am 27.5 - - - - SE 17 20 9 11 1016.1 - -
29/11:00am 27.2 - - - - SE 15 17 8 9 1016.3 1016.2 -
29/10:30am 27.3 - - - - SE 11 17 6 9 1016.5 - -
29/10:00am 27.6 - - - - ESE 11 15 6 8 1016.8 1016.7 -
29/09:30am 27.1 - - - - ESE 11 15 6 8 1017.0 - -
29/09:00am 26.9 - - - - ESE 9 11 5 6 1017.1 1017.0 -
29/08:30am 26.5 - - - - ENE 9 11 5 6 1017.1 - -
29/08:00am 25.3 - - - - SSE 7 9 4 5 1016.8 1016.7 -
29/07:30am 24.3 - - - - SSE 9 11 5 6 1016.6 - -
29/07:00am 25.2 - - - - SE 11 13 6 7 1016.4 1016.3 -
29/06:30am 25.1 - - - - SE 11 13 6 7 1016.0 - -
29/06:00am 25.2 - - - - ESE 7 9 4 5 1015.8 1015.7 -
29/05:30am 25.7 - - - - NE 7 7 4 4 1015.7 - -
29/05:00am 25.5 - - - - NE 6 7 3 4 1015.5 1015.4 -
29/04:30am 25.7 - - - - NNE 7 7 4 4 1015.5 - -
29/04:00am 25.6 - - - - NNE 2 7 1 4 1015.4 1015.3 -
29/03:30am 25.4 - - - - CALM 0 0 0 0 1015.4 - -
29/03:00am 25.3 - - - - CALM 0 0 0 0 1015.4 1015.3 -
29/02:30am 25.5 - - - - CALM 0 0 0 0 1015.3 - -
29/02:00am 25.5 - - - - NNE 4 6 2 3 1015.2 1015.1 -
29/01:30am 25.5 - - - - NE 7 7 4 4 1015.2 - -
29/01:00am 25.6 - - - - ENE 7 9 4 5 1015.4 1015.3 -
29/12:30am 25.6 - - - - ESE 9 9 5 5 1015.6 - -
29/12:00am 25.5 - - - - SE 9 11 5 6 1015.6 1015.5 -
 
Date/Time
WST
Temp
°C
App
Temp
°C
Dew
Point
Rel
Hum
%
Delta-T
°C
Wind Press
QNH
hPa
Press
MSL
hPa
Rain
since 9 am
mm
Dir
 
Spd
km/h
Gust
km/h
Spd
kts
Gust
kts
28/11:30pm 25.7 - - - - S 13 15 7 8 1015.6 - -
28/11:00pm 25.8 - - - - S 15 15 8 8 1015.8 1015.7 -
28/10:30pm 25.2 - - - - S 13 17 7 9 1015.8 - -
28/10:00pm 25.5 - - - - S 13 15 7 8 1015.9 1015.8 -
28/09:30pm 25.9 - - - - S 13 13 7 7 1016.0 - -
28/09:00pm 25.8 - - - - S 13 13 7 7 1015.9 1015.8 -
28/08:30pm 25.8 - - - - S 13 15 7 8 1015.7 - -
28/08:00pm 25.7 - - - - S 13 13 7 7 1015.6 1015.5 -
28/07:30pm 26.2 - - - - SSW 13 13 7 7 1015.3 - -
28/07:00pm 26.1 - - - - WSW 9 13 5 7 1015.0 1014.9 -
28/06:30pm 26.0 - - - - SE 9 11 5 6 1014.8 - -
28/06:00pm 25.2 - - - - SE 9 11 5 6 1014.7 1014.6 -
28/05:30pm 25.8 - - - - NE 7 9 4 5 1014.4 - -
28/05:00pm 26.4 - - - - ENE 9 9 5 5 1014.3 1014.2 -
28/04:30pm 27.3 - - - - S 11 15 6 8 1014.0 - -
28/04:00pm 27.6 - - - - SSE 9 11 5 6 1014.0 1013.9 -
28/03:30pm 27.3 - - - - ESE 11 13 6 7 1014.0 - -
28/03:00pm 27.2 - - - - SE 11 13 6 7 1014.0 1013.9 -
28/02:30pm 27.1 - - - - SE 13 15 7 8 1014.3 - -
28/02:00pm 27.4 - - - - ESE 15 17 8 9 1014.6 1014.5 -
28/01:30pm 28.6 - - - - SSE 15 19 8 10 1014.7 - -
28/01:00pm 28.8 - - - - S 17 20 9 11 1014.8 1014.7 -
28/12:30pm 28.2 - - - - SSW 15 20 8 11 1015.2 - -
28/12:00pm 27.8 - - - - SSW 17 20 9 11 1015.6 1015.5 -
28/11:30am 28.5 - - - - S 19 24 10 13 1016.1 - -
28/11:00am 27.7 - - - - S 20 24 11 13 1016.5 1016.4 -
28/10:30am 28.0 - - - - S 20 28 11 15 1016.8 - -
28/10:00am 28.7 - - - - S 20 24 11 13 1017.2 1017.1 -
28/09:30am 27.9 - - - - SSE 19 22 10 12 1017.3 - -
28/09:00am 27.3 - - - - SSE 17 20 9 11 1017.3 1017.2 -
28/08:30am 27.0 - - - - SSE 17 20 9 11 1017.2 - -
28/08:00am 26.4 - - - - SSE 15 17 8 9 1017.1 1017.0 -
28/07:30am 25.2 - - - - SSE 11 13 6 7 1016.9 - -
28/07:00am 24.2 - - - - SSE 13 13 7 7 1016.6 1016.5 -
28/06:30am 24.5 - - - - S 13 15 7 8 1016.5 - -
28/06:00am 24.7 - - - - S 15 17 8 9 1016.5 1016.4 -
28/05:30am 25.2 - - - - S 15 17 8 9 1016.3 - -
28/05:00am 24.8 - - - - SSE 13 15 7 8 1016.2 1016.1 -
28/04:30am 24.2 - - - - S 13 15 7 8 1015.9 - -
28/04:00am 24.6 - - - - S 15 17 8 9 1015.7 1015.6 -
28/03:30am 24.2 - - - - S 15 17 8 9 1015.7 - -
28/03:00am 23.8 - - - - SSE 13 15 7 8 1015.7 1015.6 -
28/02:30am 24.3 - - - - S 17 19 9 10 1015.7 - -
28/02:00am 24.5 - - - - SSE 13 15 7 8 1015.7 1015.6 -
28/01:30am 23.8 - - - - SSE 13 17 7 9 1015.8 - -
28/01:00am 24.5 - - - - SSE 15 15 8 8 1016.0 1015.9 -
28/12:30am 25.0 - - - - S 13 15 7 8 1016.3 - -
28/12:00am 23.9 - - - - S 17 19 9 10 1016.5 1016.4 -
 
Date/Time
WST
Temp
°C
App
Temp
°C
Dew
Point
Rel
Hum
%
Delta-T
°C
Wind Press
QNH
hPa
Press
MSL
hPa
Rain
since 9 am
mm
Dir
 
Spd
km/h
Gust
km/h
Spd
kts
Gust
kts
27/11:30pm 25.1 - - - - S 15 17 8 9 1016.7 - -
27/11:00pm 24.9 - - - - S 11 13 6 7 1016.8 1016.7 -
27/10:30pm 23.8 - - - - S 9 13 5 7 1016.8 - -
27/10:00pm 24.8 - - - - S 9 11 5 6 1016.9 1016.8 -
27/09:30pm 25.5 - - - - S 13 15 7 8 1016.8 - -
27/09:00pm 25.1 - - - - S 15 19 8 10 1016.5 1016.4 -
27/08:30pm 25.1 - - - - S 17 17 9 9 1016.4 - -
27/08:00pm 25.1 - - - - S 17 19 9 10 1016.3 1016.2 -
27/07:30pm 24.7 - - - - S 17 19 9 10 1016.2 - -

Other Formats:

Comma delimited format used in spreadsheet applications
http://www.bom.gov.au/fwo/IDW60801/IDW60801.94210.axf

JavaScript Object Notation format (JSON) in row-major order
http://www.bom.gov.au/fwo/IDW60801/IDW60801.94210.json